createdAt,value
2018-03-24T00:00:33.998Z,46.70
2018-03-24T00:03:01.758Z,46.30
2018-03-24T00:05:29.588Z,44.60
2018-03-24T00:07:58.119Z,46.50
2018-03-24T00:10:25.876Z,48.27
2018-03-24T00:12:53.841Z,48.90
2018-03-24T00:15:21.552Z,48.00
2018-03-24T00:17:49.352Z,47.17
2018-03-24T00:20:17.200Z,48.10
2018-03-24T00:22:44.968Z,43.60
2018-03-24T00:25:12.845Z,48.90
2018-03-24T00:27:40.758Z,47.33
2018-03-24T00:30:08.643Z,49.20
2018-03-24T00:32:36.591Z,49.33
2018-03-24T00:35:04.662Z,47.20
2018-03-24T00:37:32.457Z,52.47
2018-03-24T00:40:00.294Z,51.20
2018-03-24T00:42:28.026Z,49.73
2018-03-24T00:44:55.673Z,49.53
2018-03-24T00:47:24.158Z,48.00
2018-03-24T00:49:52.438Z,48.23
2018-03-24T00:52:20.130Z,47.47
2018-03-24T00:54:47.786Z,47.80
2018-03-24T00:57:15.757Z,52.20
2018-03-24T00:59:43.638Z,50.00
2018-03-24T01:02:11.396Z,48.33
2018-03-24T01:04:40.533Z,50.73
2018-03-24T01:07:08.338Z,46.53
2018-03-24T01:09:36.263Z,51.73
2018-03-24T01:12:04.103Z,50.03
2018-03-24T01:14:31.827Z,47.03
2018-03-24T01:17:00.494Z,51.30
2018-03-24T01:19:28.304Z,52.17
2018-03-24T01:21:55.997Z,48.90
2018-03-24T01:24:23.707Z,55.20
2018-03-24T01:26:51.429Z,54.57
2018-03-24T01:29:19.332Z,51.70
2018-03-24T01:31:48.208Z,49.70
2018-03-24T01:34:16.076Z,50.63
2018-03-24T01:36:43.958Z,45.30
2018-03-24T01:39:11.835Z,52.13
2018-03-24T01:41:40.269Z,51.90
2018-03-24T01:44:08.579Z,50.27
2018-03-24T01:46:38.286Z,52.23
2018-03-24T01:49:06.930Z,50.93
2018-03-24T01:51:35.067Z,50.80
2018-03-24T01:54:03.668Z,48.00
2018-03-24T01:56:31.554Z,53.47
2018-03-24T01:58:59.316Z,55.17
2018-03-24T02:01:27.269Z,57.53
2018-03-24T02:03:55.172Z,51.50
2018-03-24T02:06:23.077Z,57.27
2018-03-24T02:08:50.935Z,52.93
2018-03-24T02:11:19.556Z,54.00
2018-03-24T02:13:47.432Z,52.17
2018-03-24T02:16:15.247Z,51.57
2018-03-24T02:18:43.189Z,52.97
2018-03-24T02:21:12.867Z,51.93
2018-03-24T02:23:40.853Z,49.80
2018-03-24T02:26:08.716Z,52.60
2018-03-24T02:28:36.698Z,52.33
2018-03-24T02:31:04.606Z,58.33
2018-03-24T02:33:32.609Z,57.93
2018-03-24T02:36:00.500Z,60.17
2018-03-24T02:38:28.190Z,57.80
2018-03-24T02:40:56.059Z,55.53
2018-03-24T02:43:23.917Z,51.97
2018-03-24T02:45:51.758Z,71.00
2018-03-24T02:48:19.628Z,60.60
2018-03-24T02:50:47.539Z,58.83
2018-03-24T02:53:15.500Z,50.57
2018-03-24T02:55:43.376Z,53.17
2018-03-24T02:58:11.403Z,55.17
2018-03-24T03:00:39.279Z,58.03
2018-03-24T03:03:07.149Z,58.10
2018-03-24T03:05:35.047Z,60.00
2018-03-24T03:08:02.894Z,58.70
2018-03-24T03:10:30.834Z,58.07
2018-03-24T03:12:58.625Z,56.57
2018-03-24T03:15:27.265Z,57.03
2018-03-24T03:17:55.111Z,61.60
2018-03-24T03:20:23.779Z,61.27
2018-03-24T03:22:51.691Z,67.97
2018-03-24T03:25:19.469Z,66.50
2018-03-24T03:27:47.209Z,69.30
2018-03-24T03:30:34.748Z,63.33
2018-03-24T03:33:02.758Z,74.27
2018-03-24T03:35:30.709Z,71.70
2018-03-24T03:37:58.567Z,83.93
2018-03-24T03:40:26.350Z,81.13
2018-03-24T03:42:54.343Z,81.53
2018-03-24T03:45:22.155Z,77.00
2018-03-24T03:47:50.070Z,87.00
2018-03-24T03:50:17.891Z,83.77
2018-03-24T03:52:45.730Z,85.43
2018-03-24T03:55:14.349Z,88.40
2018-03-24T03:57:42.265Z,96.00
2018-03-24T04:00:12.600Z,88.70
2018-03-24T04:02:40.591Z,90.90
2018-03-24T04:05:08.317Z,89.67
2018-03-24T04:07:36.059Z,90.40
2018-03-24T04:10:04.049Z,92.63
2018-03-24T04:12:32.659Z,87.37
2018-03-24T04:15:00.585Z,90.03
2018-03-24T04:17:28.471Z,85.33
2018-03-24T04:19:56.069Z,93.23
2018-03-24T04:22:23.889Z,93.70
2018-03-24T04:24:51.769Z,87.53
2018-03-24T04:27:19.617Z,93.20
2018-03-24T04:29:47.380Z,93.27
2018-03-24T04:32:15.304Z,93.80
2018-03-24T04:34:43.273Z,87.43
2018-03-24T04:37:11.343Z,94.80
2018-03-24T04:39:40.049Z,94.80
2018-03-24T04:42:08.111Z,96.97
2018-03-24T04:44:36.049Z,94.73
2018-03-24T04:47:04.635Z,94.43
2018-03-24T04:49:32.395Z,93.50
2018-03-24T04:52:00.483Z,98.57
2018-03-24T04:54:28.445Z,96.87
2018-03-24T04:56:56.300Z,89.33
2018-03-24T04:59:24.905Z,96.73
2018-03-24T05:01:53.641Z,91.27
2018-03-24T05:04:22.391Z,95.00
2018-03-24T05:06:50.328Z,87.57
2018-03-24T05:09:18.291Z,90.77
2018-03-24T05:11:46.071Z,96.10
2018-03-24T05:14:13.937Z,100.57
2018-03-24T05:16:41.791Z,94.90
2018-03-24T05:19:09.697Z,99.90
2018-03-24T05:21:38.348Z,97.43
2018-03-24T05:24:07.141Z,93.13
2018-03-24T05:26:35.849Z,100.03
2018-03-24T05:29:03.737Z,100.37
2018-03-24T05:31:31.529Z,94.03
2018-03-24T05:33:59.521Z,95.43
2018-03-24T05:36:27.379Z,102.03
2018-03-24T05:38:55.202Z,100.03
2018-03-24T05:41:22.995Z,104.00
2018-03-24T05:43:50.915Z,103.37
2018-03-24T05:46:18.812Z,98.37
2018-03-24T05:48:47.560Z,95.50
2018-03-24T05:51:16.373Z,102.30
2018-03-24T05:53:44.355Z,96.80
2018-03-24T05:56:12.338Z,88.07
2018-03-24T05:58:40.253Z,103.70
2018-03-24T06:01:08.784Z,100.97
2018-03-24T06:03:36.641Z,96.50
2018-03-24T06:06:04.508Z,94.93
2018-03-24T06:08:32.437Z,96.47
2018-03-24T06:11:00.299Z,100.13
2018-03-24T06:13:28.214Z,99.57
2018-03-24T06:15:56.200Z,105.27
2018-03-24T06:18:24.041Z,109.73
2018-03-24T06:20:51.729Z,108.83
2018-03-24T06:23:19.460Z,102.50
2018-03-24T06:25:48.837Z,100.87
2018-03-24T06:28:16.799Z,99.60
2018-03-24T06:30:48.265Z,107.77
2018-03-24T06:33:16.315Z,109.23
2018-03-24T06:35:44.923Z,116.60
2018-03-24T06:38:12.896Z,109.27
2018-03-24T06:40:40.841Z,105.80
2018-03-24T06:43:08.775Z,113.43
2018-03-24T06:45:36.517Z,101.00
2018-03-24T06:48:04.339Z,106.50
2018-03-24T06:50:32.978Z,112.53
2018-03-24T06:53:00.951Z,109.67
2018-03-24T06:55:28.897Z,119.60
2018-03-24T06:57:56.804Z,116.23
2018-03-24T07:00:25.215Z,102.20
2018-03-24T07:02:53.136Z,113.30
2018-03-24T07:05:20.966Z,105.07
2018-03-24T07:07:49.651Z,103.70
2018-03-24T07:10:17.621Z,108.43
2018-03-24T07:12:45.560Z,101.77
2018-03-24T07:15:13.335Z,107.37
2018-03-24T07:17:42.095Z,110.27
2018-03-24T07:20:10.850Z,106.57
2018-03-24T07:22:40.856Z,109.50
2018-03-24T07:25:08.879Z,108.13
2018-03-24T07:27:37.647Z,114.27
2018-03-24T07:30:05.624Z,110.97
2018-03-24T07:32:33.719Z,108.77
2018-03-24T07:35:02.424Z,115.63
2018-03-24T07:37:31.176Z,101.53
2018-03-24T07:40:00.124Z,101.23
2018-03-24T07:42:27.797Z,105.17
2018-03-24T07:44:55.653Z,103.43
2018-03-24T07:47:28.120Z,101.07
2018-03-24T07:49:56.798Z,100.73
2018-03-24T07:52:25.436Z,102.17
2018-03-24T07:54:53.253Z,104.80
2018-03-24T07:57:20.982Z,92.93
2018-03-24T07:59:48.793Z,89.80
2018-03-24T08:02:16.688Z,96.80
2018-03-24T08:04:44.420Z,99.70
2018-03-24T08:07:12.273Z,93.03
2018-03-24T08:09:40.394Z,79.07
2018-03-24T08:12:08.247Z,86.60
2018-03-24T08:14:36.171Z,92.73
2018-03-24T08:17:05.086Z,75.30
2018-03-24T08:19:33.045Z,85.90
2018-03-24T08:22:01.003Z,84.17
2018-03-24T08:24:30.363Z,92.90
2018-03-24T08:26:58.333Z,88.27
2018-03-24T08:29:26.368Z,85.53
2018-03-24T08:31:54.204Z,79.50
2018-03-24T08:34:26.330Z,84.27
2018-03-24T08:36:54.236Z,85.33
2018-03-24T08:39:23.802Z,88.00
2018-03-24T08:41:51.679Z,82.27
2018-03-24T08:44:19.580Z,86.47
2018-03-24T08:46:48.412Z,80.23
2018-03-24T08:49:16.267Z,80.60
2018-03-24T08:51:44.189Z,75.63
2018-03-24T08:54:12.227Z,80.57
2018-03-24T08:56:40.430Z,83.57
2018-03-24T08:59:08.390Z,84.80
2018-03-24T09:01:36.115Z,78.60
2018-03-24T09:04:03.938Z,78.07
2018-03-24T09:06:31.833Z,77.47
2018-03-24T09:08:59.631Z,85.57
2018-03-24T09:11:27.591Z,78.70
2018-03-24T09:13:55.985Z,74.70
2018-03-24T09:16:23.869Z,79.47
2018-03-24T09:18:51.733Z,82.17
2018-03-24T09:21:19.520Z,78.57
2018-03-24T09:23:47.186Z,80.53
2018-03-24T09:26:15.045Z,82.17
2018-03-24T09:28:43.551Z,74.30
2018-03-24T09:31:12.191Z,82.37
2018-03-24T09:33:39.945Z,75.10
2018-03-24T09:36:07.974Z,65.93
2018-03-24T09:38:35.875Z,61.87
2018-03-24T09:41:03.709Z,60.40
2018-03-24T09:43:32.157Z,64.30
2018-03-24T09:46:00.125Z,70.30
2018-03-24T09:48:27.795Z,69.90
2018-03-24T09:50:55.597Z,61.60
2018-03-24T09:53:23.283Z,61.73
2018-03-24T09:55:51.139Z,54.17
2018-03-24T09:58:19.005Z,48.50
2018-03-24T10:00:46.793Z,50.03
2018-03-24T10:03:14.834Z,61.53
2018-03-24T10:05:42.678Z,58.60
2018-03-24T10:08:10.714Z,61.60
2018-03-24T10:10:38.483Z,55.37
2018-03-24T10:13:06.310Z,56.87
2018-03-24T10:15:34.340Z,53.03
2018-03-24T10:18:02.581Z,52.93
2018-03-24T10:20:41.881Z,55.50
2018-03-24T10:23:15.428Z,38.13
2018-03-24T10:25:44.077Z,36.57
2018-03-24T10:28:11.936Z,41.20
2018-03-24T10:30:39.847Z,28.83
2018-03-24T10:33:07.863Z,33.73
2018-03-24T10:35:35.835Z,24.00
2018-03-24T10:38:04.552Z,23.83
2018-03-24T10:40:32.381Z,28.77
2018-03-24T10:43:05.754Z,24.90
2018-03-24T10:45:34.328Z,26.03
2018-03-24T10:48:02.167Z,20.40
2018-03-24T10:50:30.189Z,26.53
2018-03-24T10:52:59.294Z,20.33
2018-03-24T10:55:27.306Z,23.10
2018-03-24T10:57:55.188Z,28.00
2018-03-24T11:00:28.747Z,26.20
2018-03-24T11:02:57.012Z,25.77
2018-03-24T11:05:24.929Z,21.07
2018-03-24T11:07:52.825Z,20.50
2018-03-24T11:10:20.697Z,22.73
2018-03-24T11:12:48.429Z,20.00
2018-03-24T11:15:16.241Z,18.50
2018-03-24T11:17:44.101Z,23.70
2018-03-24T11:20:12.076Z,21.67
2018-03-24T11:22:39.983Z,20.63
2018-03-24T11:25:07.796Z,20.90
2018-03-24T11:27:35.685Z,18.37
2018-03-24T11:30:04.639Z,15.80
2018-03-24T11:32:32.512Z,18.60
2018-03-24T11:35:00.426Z,17.47
2018-03-24T11:37:28.256Z,17.43
2018-03-24T11:39:57.053Z,16.33
2018-03-24T11:42:24.987Z,16.43
2018-03-24T11:44:52.895Z,21.73
2018-03-24T11:47:21.594Z,15.50
2018-03-24T11:49:50.182Z,14.23
2018-03-24T11:52:18.231Z,16.93
2018-03-24T11:54:46.837Z,16.10
2018-03-24T11:57:14.822Z,15.03
2018-03-24T11:59:42.796Z,13.47
2018-03-24T12:02:10.888Z,13.13
2018-03-24T12:04:38.954Z,11.23
2018-03-24T12:07:06.930Z,15.23
2018-03-24T12:09:35.925Z,14.43
2018-03-24T12:12:03.729Z,15.70
2018-03-24T12:14:31.485Z,12.93
2018-03-24T12:16:59.260Z,17.37
2018-03-24T12:19:27.104Z,12.50
2018-03-24T12:21:54.813Z,14.90
2018-03-24T12:24:22.700Z,10.00
2018-03-24T12:26:50.874Z,23.47
2018-03-24T12:29:18.660Z,19.37
2018-03-24T12:31:47.088Z,15.67
2018-03-24T12:34:14.803Z,13.07
2018-03-24T12:36:42.456Z,19.40
2018-03-24T12:39:16.639Z,19.40
2018-03-24T12:41:45.828Z,18.73
2018-03-24T12:44:14.775Z,17.87
2018-03-24T12:46:42.628Z,15.87
2018-03-24T12:49:11.300Z,15.10
2018-03-24T12:51:39.726Z,16.40
2018-03-24T12:54:08.688Z,17.97
2018-03-24T12:56:36.542Z,20.30
2018-03-24T12:59:05.038Z,18.40
2018-03-24T13:01:32.742Z,16.87
2018-03-24T13:04:01.534Z,18.67
2018-03-24T13:06:29.406Z,17.23
2018-03-24T13:08:57.254Z,25.47
2018-03-24T13:11:25.228Z,16.70
2018-03-24T13:13:57.612Z,17.60
2018-03-24T13:16:26.286Z,16.43
2018-03-24T13:18:54.845Z,20.63
2018-03-24T13:21:23.082Z,16.30
2018-03-24T13:23:51.505Z,17.00
2018-03-24T13:26:19.230Z,15.70
2018-03-24T13:28:46.993Z,17.23
2018-03-24T13:31:14.660Z,22.83
2018-03-24T13:33:42.418Z,17.03
2018-03-24T13:36:10.156Z,17.87
2018-03-24T13:38:37.854Z,15.93
2018-03-24T13:41:05.506Z,15.27
2018-03-24T13:43:33.077Z,15.87
2018-03-24T13:46:00.666Z,13.77
2018-03-24T13:48:28.240Z,14.70
2018-03-24T13:50:56.092Z,16.47
2018-03-24T13:53:23.745Z,18.10
2018-03-24T13:55:51.508Z,16.10
2018-03-24T13:58:19.250Z,17.63
2018-03-24T14:00:47.099Z,15.20
2018-03-24T14:03:14.806Z,16.97
2018-03-24T14:05:42.562Z,16.33
2018-03-24T14:08:10.222Z,17.00
2018-03-24T14:10:38.032Z,17.90
2018-03-24T14:13:06.606Z,15.87
2018-03-24T14:15:34.308Z,14.77
2018-03-24T14:18:01.976Z,16.27
2018-03-24T14:20:29.655Z,18.13
2018-03-24T14:22:57.392Z,19.30
2018-03-24T14:25:25.189Z,19.63
2018-03-24T14:27:53.020Z,17.23
2018-03-24T14:30:20.920Z,19.13
2018-03-24T14:32:48.936Z,19.17
2018-03-24T14:35:19.209Z,17.70
2018-03-24T14:37:51.377Z,21.37
2018-03-24T14:40:19.161Z,16.43
2018-03-24T14:42:46.774Z,17.40
2018-03-24T14:45:15.151Z,20.03
2018-03-24T14:47:43.536Z,17.53
2018-03-24T14:50:11.229Z,17.63
2018-03-24T14:52:38.936Z,17.60
2018-03-24T14:55:06.894Z,19.67
2018-03-24T14:57:35.554Z,18.90
2018-03-24T15:00:03.944Z,17.30
2018-03-24T15:02:31.775Z,16.47
2018-03-24T15:04:59.714Z,15.40
2018-03-24T15:07:28.080Z,20.27
2018-03-24T15:09:56.042Z,21.30
2018-03-24T15:12:24.560Z,28.00
2018-03-24T15:14:52.266Z,24.90
2018-03-24T15:17:20.008Z,20.60
2018-03-24T15:19:47.984Z,19.37
2018-03-24T15:22:15.994Z,24.67
2018-03-24T15:24:44.142Z,24.47
2018-03-24T15:27:11.988Z,23.67
2018-03-24T15:29:51.584Z,24.67
2018-03-24T15:32:31.046Z,21.73
2018-03-24T15:35:10.320Z,24.67
2018-03-24T15:37:38.016Z,23.60
2018-03-24T15:40:06.498Z,23.13
2018-03-24T15:42:34.210Z,24.23
2018-03-24T15:45:02.624Z,27.17
2018-03-24T15:47:30.236Z,23.77
2018-03-24T15:49:57.941Z,19.03
2018-03-24T15:52:25.484Z,20.60
2018-03-24T15:54:53.132Z,20.63
2018-03-24T15:57:20.762Z,26.07
2018-03-24T15:59:48.589Z,21.60
2018-03-24T16:02:17.009Z,23.00
2018-03-24T16:04:44.772Z,19.73
2018-03-24T16:07:12.496Z,19.93
2018-03-24T16:09:41.290Z,20.83
2018-03-24T16:12:08.903Z,18.83
2018-03-24T16:14:36.571Z,23.83
2018-03-24T16:17:04.304Z,21.43
2018-03-24T16:19:31.911Z,21.23
2018-03-24T16:21:59.729Z,23.07
2018-03-24T16:24:27.304Z,22.87
2018-03-24T16:26:54.906Z,27.03
2018-03-24T16:29:22.718Z,31.77
2018-03-24T16:31:50.574Z,42.40
2018-03-24T16:34:18.245Z,24.23
2018-03-24T16:36:46.728Z,25.43
2018-03-24T16:39:14.541Z,27.97
2018-03-24T16:41:42.360Z,24.83
2018-03-24T16:44:10.906Z,26.00
2018-03-24T16:46:38.694Z,25.03
2018-03-24T16:49:06.526Z,24.83
2018-03-24T16:51:34.388Z,24.87
2018-03-24T16:54:02.182Z,26.70
2018-03-24T16:56:30.012Z,23.60
2018-03-24T16:58:57.827Z,25.90
2018-03-24T17:01:25.676Z,25.13
2018-03-24T17:03:53.272Z,25.27
2018-03-24T17:06:21.763Z,25.90
2018-03-24T17:08:49.481Z,26.47
2018-03-24T17:11:17.327Z,24.53
2018-03-24T17:13:45.188Z,27.07
2018-03-24T17:16:13.170Z,24.27
2018-03-24T17:18:41.030Z,29.37
2018-03-24T17:21:08.900Z,28.50
2018-03-24T17:23:36.788Z,26.47
2018-03-24T17:26:04.744Z,24.97
2018-03-24T17:28:32.574Z,26.90
2018-03-24T17:31:00.558Z,28.07
2018-03-24T17:33:28.318Z,25.43
2018-03-24T17:35:56.103Z,25.83
2018-03-24T17:38:23.809Z,24.27
2018-03-24T17:40:52.416Z,30.27
2018-03-24T17:43:20.232Z,30.03
2018-03-24T17:45:49.024Z,25.93
2018-03-24T17:48:17.066Z,27.73
2018-03-24T17:50:46.641Z,25.27
2018-03-24T17:53:14.582Z,26.17
2018-03-24T17:55:42.689Z,25.20
2018-03-24T17:58:10.566Z,27.03
2018-03-24T18:00:38.452Z,23.63
2018-03-24T18:03:06.338Z,21.47
2018-03-24T18:05:34.187Z,22.13
2018-03-24T18:08:02.161Z,25.77
2018-03-24T18:10:30.016Z,23.17
2018-03-24T18:12:57.923Z,35.07
2018-03-24T18:15:25.726Z,32.50
2018-03-24T18:17:53.728Z,27.83
2018-03-24T18:20:22.671Z,24.47
2018-03-24T18:22:50.890Z,25.43
2018-03-24T18:25:18.765Z,25.20
2018-03-24T18:27:46.680Z,25.00
2018-03-24T18:30:14.750Z,28.83
2018-03-24T18:32:42.732Z,24.27
2018-03-24T18:35:10.661Z,28.90
2018-03-24T18:37:38.711Z,30.50
2018-03-24T18:40:06.554Z,29.00
2018-03-24T18:42:34.508Z,49.53
2018-03-24T18:45:02.467Z,30.40
2018-03-24T18:47:30.258Z,31.03
2018-03-24T18:49:58.155Z,28.60
2018-03-24T18:52:26.037Z,27.37
2018-03-24T18:54:53.940Z,27.50
2018-03-24T18:57:22.110Z,30.60
2018-03-24T18:59:50.851Z,39.00
2018-03-24T19:02:18.859Z,27.23
2018-03-24T19:04:46.766Z,30.17
2018-03-24T19:07:14.736Z,31.20
2018-03-24T19:09:42.631Z,26.77
2018-03-24T19:12:10.522Z,29.40
2018-03-24T19:14:39.350Z,34.77
2018-03-24T19:17:07.368Z,29.97
2018-03-24T19:19:35.238Z,33.70
2018-03-24T19:22:03.481Z,33.10
2018-03-24T19:24:31.682Z,30.57
2018-03-24T19:26:59.918Z,33.37
2018-03-24T19:29:27.705Z,33.10
2018-03-24T19:31:55.524Z,32.83
2018-03-24T19:34:23.574Z,32.87
2018-03-24T19:36:51.596Z,36.60
2018-03-24T19:39:19.359Z,36.27
2018-03-24T19:41:47.460Z,33.93
2018-03-24T19:44:17.130Z,35.80
2018-03-24T19:46:44.960Z,33.33
2018-03-24T19:49:12.695Z,33.57
2018-03-24T19:51:40.580Z,35.87
2018-03-24T19:54:08.277Z,39.53
2018-03-24T19:56:37.042Z,35.07
2018-03-24T19:59:04.794Z,39.07
2018-03-24T20:01:32.706Z,37.60
2018-03-24T20:04:00.601Z,33.83
2018-03-24T20:06:28.404Z,35.57
2018-03-24T20:08:58.613Z,40.90
2018-03-24T20:11:26.415Z,38.70
2018-03-24T20:13:54.204Z,41.03
2018-03-24T20:16:23.022Z,36.80
2018-03-24T20:18:51.868Z,39.33
2018-03-24T20:21:19.688Z,37.07
2018-03-24T20:23:47.496Z,43.37
2018-03-24T20:26:15.371Z,42.10
2018-03-24T20:28:43.241Z,39.60
2018-03-24T20:31:11.161Z,38.70
2018-03-24T20:33:39.038Z,37.00
2018-03-24T20:36:06.970Z,39.57
2018-03-24T20:38:34.763Z,40.03
2018-03-24T20:41:02.605Z,38.30
2018-03-24T20:43:30.504Z,37.77
2018-03-24T20:45:58.446Z,38.23
2018-03-24T20:48:26.496Z,37.23
2018-03-24T20:50:54.248Z,42.70
2018-03-24T20:53:22.046Z,39.63
2018-03-24T20:55:49.942Z,39.67
2018-03-24T20:58:17.690Z,41.43
2018-03-24T21:00:45.621Z,37.33
2018-03-24T21:03:13.356Z,38.23
2018-03-24T21:05:41.280Z,40.30
2018-03-24T21:08:09.332Z,39.40
2018-03-24T21:10:37.136Z,40.30
2018-03-24T21:13:04.972Z,37.37
2018-03-24T21:15:32.710Z,38.00
2018-03-24T21:18:00.618Z,39.20
2018-03-24T21:20:28.578Z,39.17
2018-03-24T21:22:56.414Z,36.77
2018-03-24T21:25:25.106Z,38.07
2018-03-24T21:27:52.857Z,43.87
2018-03-24T21:30:20.763Z,40.40
2018-03-24T21:32:48.645Z,38.67
2018-03-24T21:35:16.638Z,39.77
2018-03-24T21:37:44.628Z,37.90
2018-03-24T21:40:12.570Z,39.60
2018-03-24T21:42:40.303Z,36.03
2018-03-24T21:45:08.106Z,39.87
2018-03-24T21:47:36.906Z,41.10
2018-03-24T21:50:04.841Z,40.40
2018-03-24T21:52:32.830Z,41.00
2018-03-24T21:55:02.137Z,36.80
2018-03-24T21:57:30.754Z,45.47
2018-03-24T21:59:58.596Z,40.67
2018-03-24T22:02:26.449Z,36.63
2018-03-24T22:04:55.098Z,39.20
2018-03-24T22:07:23.981Z,40.40
2018-03-24T22:09:52.677Z,39.10
2018-03-24T22:12:20.459Z,36.50
2018-03-24T22:14:48.242Z,36.97
2018-03-24T22:17:16.342Z,38.07
2018-03-24T22:19:44.198Z,40.53
2018-03-24T22:22:12.067Z,39.50
2018-03-24T22:24:40.076Z,34.80
2018-03-24T22:27:07.919Z,43.77
2018-03-24T22:29:35.746Z,40.70
2018-03-24T22:32:04.752Z,40.20
2018-03-24T22:34:32.671Z,40.30
2018-03-24T22:37:00.692Z,39.17
2018-03-24T22:39:28.539Z,37.33
2018-03-24T22:41:56.562Z,43.53
2018-03-24T22:44:24.494Z,40.83
2018-03-24T22:46:52.279Z,40.43
2018-03-24T22:49:19.895Z,37.80
2018-03-24T22:51:47.701Z,43.13
2018-03-24T22:54:15.288Z,39.37
2018-03-24T22:56:43.002Z,44.07
2018-03-24T22:59:10.909Z,40.03
2018-03-24T23:01:38.660Z,41.30
2018-03-24T23:04:06.579Z,44.47
2018-03-24T23:06:35.343Z,41.60
2018-03-24T23:09:02.986Z,40.30
2018-03-24T23:11:30.741Z,43.37
2018-03-24T23:13:58.741Z,43.10
2018-03-24T23:16:26.637Z,41.63
2018-03-24T23:18:55.023Z,39.90
2018-03-24T23:21:23.483Z,41.77
2018-03-24T23:23:51.328Z,38.97
2018-03-24T23:26:19.126Z,42.47
2018-03-24T23:28:46.879Z,39.43
2018-03-24T23:31:14.729Z,41.93
2018-03-24T23:33:43.456Z,41.00
2018-03-24T23:36:12.236Z,38.87
2018-03-24T23:38:40.118Z,39.00
2018-03-24T23:41:07.923Z,42.20
2018-03-24T23:43:35.806Z,45.00
2018-03-24T23:46:05.822Z,41.33
2018-03-24T23:48:33.965Z,38.03
2018-03-24T23:51:01.812Z,40.37
2018-03-24T23:53:29.672Z,40.57
2018-03-24T23:55:58.386Z,41.80
2018-03-24T23:58:26.355Z,41.63
